createdAt,value
2022-11-26T00:00:56.321Z,5.62
2022-11-26T00:03:24.391Z,5.50
2022-11-26T00:05:54.842Z,5.39
2022-11-26T00:08:26.934Z,5.39
2022-11-26T00:10:54.964Z,5.42
2022-11-26T00:13:25.740Z,5.48
2022-11-26T00:15:54.654Z,5.52
2022-11-26T00:18:23.498Z,5.58
2022-11-26T00:20:55.634Z,5.61
2022-11-26T00:23:24.436Z,5.69
2022-11-26T00:25:55.601Z,5.78
2022-11-26T00:28:29.400Z,5.95
2022-11-26T00:30:59.553Z,5.98
2022-11-26T00:33:28.709Z,6.03
2022-11-26T00:35:58.739Z,6.08
2022-11-26T00:38:27.394Z,6.13
2022-11-26T00:40:55.203Z,6.20
2022-11-26T00:43:23.093Z,6.28
2022-11-26T00:45:52.220Z,6.30
2022-11-26T00:48:20.247Z,6.31
2022-11-26T00:50:50.930Z,6.37
2022-11-26T00:53:22.245Z,6.34
2022-11-26T00:55:51.213Z,6.41
2022-11-26T00:58:27.981Z,6.39
2022-11-26T01:00:59.316Z,6.42
2022-11-26T01:03:27.508Z,6.38
2022-11-26T01:05:58.331Z,6.43
2022-11-26T01:08:31.218Z,6.41
2022-11-26T01:10:59.638Z,6.35
2022-11-26T01:13:27.918Z,6.36
2022-11-26T01:15:58.318Z,6.39
2022-11-26T01:18:26.467Z,6.47
2022-11-26T01:20:54.195Z,6.52
2022-11-26T01:23:22.821Z,6.55
2022-11-26T01:25:50.570Z,6.53
2022-11-26T01:28:20.286Z,6.54
2022-11-26T01:30:48.108Z,6.50
2022-11-26T01:33:17.248Z,6.55
2022-11-26T01:35:45.036Z,6.59
2022-11-26T01:38:15.097Z,6.61
2022-11-26T01:41:02.911Z,6.57
2022-11-26T01:43:38.057Z,6.46
2022-11-26T01:46:15.321Z,6.39
2022-11-26T01:48:45.135Z,6.33
2022-11-26T01:51:14.359Z,6.31
2022-11-26T01:53:46.853Z,6.31
2022-11-26T01:56:20.171Z,6.29
2022-11-26T01:58:51.564Z,6.31
2022-11-26T02:01:20.347Z,6.34
2022-11-26T02:03:58.270Z,6.35
2022-11-26T02:06:31.205Z,6.33
2022-11-26T02:09:00.567Z,6.31
2022-11-26T02:11:28.885Z,6.21
2022-11-26T02:14:01.670Z,6.19
2022-11-26T02:16:46.357Z,6.17
2022-11-26T02:19:43.044Z,6.12
2022-11-26T02:22:22.893Z,6.15
2022-11-26T02:24:57.428Z,6.19
2022-11-26T02:28:09.335Z,6.24
2022-11-26T02:30:42.980Z,6.23
2022-11-26T02:33:17.074Z,6.24
2022-11-26T02:35:48.878Z,6.25
2022-11-26T02:38:20.526Z,6.33
2022-11-26T02:40:48.569Z,6.38
2022-11-26T02:43:17.755Z,6.37
2022-11-26T02:45:50.435Z,6.35
2022-11-26T02:48:23.274Z,6.41
2022-11-26T02:50:56.858Z,6.43
2022-11-26T02:53:27.816Z,6.41
2022-11-26T02:56:03.341Z,6.43
2022-11-26T02:58:33.205Z,6.44
2022-11-26T03:01:07.231Z,6.49
2022-11-26T03:03:38.654Z,6.52
2022-11-26T03:06:10.971Z,6.54
2022-11-26T03:08:39.296Z,6.59
2022-11-26T03:11:07.835Z,6.57
2022-11-26T03:13:35.709Z,6.60
2022-11-26T03:16:05.408Z,6.63
2022-11-26T03:18:33.205Z,6.57
2022-11-26T03:21:01.830Z,6.52
2022-11-26T03:23:29.576Z,6.53
2022-11-26T03:25:57.339Z,6.52
2022-11-26T03:28:25.124Z,6.49
2022-11-26T03:30:52.960Z,6.49
2022-11-26T03:33:22.097Z,6.54
2022-11-26T03:35:51.421Z,6.55
2022-11-26T03:38:19.233Z,6.55
2022-11-26T03:40:47.020Z,6.52
2022-11-26T03:43:14.791Z,6.54
2022-11-26T03:45:42.611Z,6.41
2022-11-26T03:48:10.385Z,6.43
2022-11-26T03:50:39.532Z,6.29
2022-11-26T03:53:07.400Z,6.32
2022-11-26T03:55:35.129Z,6.22
2022-11-26T03:58:02.871Z,6.13
2022-11-26T04:00:30.717Z,6.07
2022-11-26T04:02:58.517Z,6.06
2022-11-26T04:05:26.281Z,5.99
2022-11-26T04:07:55.455Z,5.81
2022-11-26T04:10:23.419Z,5.88
2022-11-26T04:12:51.240Z,5.78
2022-11-26T04:15:19.242Z,5.71
2022-11-26T04:17:47.003Z,5.62
2022-11-26T04:20:15.334Z,5.62
2022-11-26T04:22:43.041Z,5.51
2022-11-26T04:25:12.609Z,5.48
2022-11-26T04:27:40.594Z,5.36
2022-11-26T04:30:09.671Z,5.40
2022-11-26T04:32:39.857Z,5.36
2022-11-26T04:35:08.860Z,5.48
2022-11-26T04:37:36.734Z,5.38
2022-11-26T04:40:04.833Z,5.39
2022-11-26T04:42:34.323Z,5.28
2022-11-26T04:45:02.324Z,5.20
2022-11-26T04:47:30.152Z,5.14
2022-11-26T04:49:57.982Z,4.99
2022-11-26T04:52:26.011Z,5.00
2022-11-26T04:54:53.775Z,5.02
2022-11-26T04:57:21.547Z,4.93
2022-11-26T04:59:50.697Z,4.92
2022-11-26T05:02:18.616Z,4.81
2022-11-26T05:04:46.659Z,4.73
2022-11-26T05:07:14.558Z,4.62
2022-11-26T05:09:42.595Z,4.55
2022-11-26T05:12:11.329Z,4.32
2022-11-26T05:14:39.311Z,4.38
2022-11-26T05:17:08.709Z,4.39
2022-11-26T05:19:36.475Z,4.50
2022-11-26T05:22:04.221Z,4.46
2022-11-26T05:24:32.202Z,4.47
2022-11-26T05:26:59.992Z,4.34
2022-11-26T05:29:27.921Z,4.30
2022-11-26T05:31:55.863Z,4.31
2022-11-26T05:34:25.067Z,4.31
2022-11-26T05:36:52.845Z,4.29
2022-11-26T05:39:20.658Z,4.18
2022-11-26T05:41:48.460Z,4.11
2022-11-26T05:44:16.262Z,4.15
2022-11-26T05:46:44.270Z,4.21
2022-11-26T05:49:12.232Z,4.22
2022-11-26T05:51:41.321Z,4.23
2022-11-26T05:54:12.624Z,4.33
2022-11-26T05:56:40.333Z,4.44
2022-11-26T05:59:08.112Z,4.42
2022-11-26T06:01:35.974Z,4.43
2022-11-26T06:04:04.059Z,4.52
2022-11-26T06:06:31.970Z,4.47
2022-11-26T06:09:01.068Z,4.54
2022-11-26T06:11:28.827Z,3.88
2022-11-26T06:13:56.892Z,4.50
2022-11-26T06:16:24.709Z,4.55
2022-11-26T06:18:52.515Z,4.53
2022-11-26T06:21:20.256Z,4.55
2022-11-26T06:23:55.836Z,4.46
2022-11-26T06:26:25.361Z,4.44
2022-11-26T06:28:53.178Z,4.53
2022-11-26T06:31:21.150Z,4.54
2022-11-26T06:33:49.113Z,4.60
2022-11-26T06:36:16.858Z,4.79
2022-11-26T06:38:44.792Z,4.98
2022-11-26T06:41:12.490Z,4.99
2022-11-26T06:43:41.737Z,5.03
2022-11-26T06:46:11.717Z,5.08
2022-11-26T06:48:40.478Z,5.18
2022-11-26T06:51:10.254Z,5.10
2022-11-26T06:53:38.165Z,5.04
2022-11-26T06:56:08.327Z,5.05
2022-11-26T06:58:36.156Z,5.13
2022-11-26T07:01:10.124Z,5.00
2022-11-26T07:03:38.298Z,4.89
2022-11-26T07:06:06.138Z,4.94
2022-11-26T07:08:33.961Z,5.14
2022-11-26T07:11:04.109Z,5.17
2022-11-26T07:13:32.110Z,5.33
2022-11-26T07:16:03.200Z,5.35
2022-11-26T07:18:32.741Z,5.50
2022-11-26T07:21:06.002Z,5.31
2022-11-26T07:23:33.934Z,5.58
2022-11-26T07:26:02.541Z,5.65
2022-11-26T07:28:31.093Z,5.82
2022-11-26T07:31:02.117Z,5.88
2022-11-26T07:33:31.903Z,6.15
2022-11-26T07:36:00.728Z,5.96
2022-11-26T07:38:28.792Z,6.02
2022-11-26T07:41:03.311Z,6.11
2022-11-26T07:43:31.132Z,6.24
2022-11-26T07:46:02.603Z,6.23
2022-11-26T07:48:33.367Z,6.27
2022-11-26T07:51:02.053Z,6.21
2022-11-26T07:53:30.344Z,6.35
2022-11-26T07:55:58.067Z,6.47
2022-11-26T07:58:26.835Z,6.49
2022-11-26T08:00:55.183Z,6.57
2022-11-26T08:03:23.028Z,6.64
2022-11-26T08:05:52.178Z,6.55
2022-11-26T08:08:19.951Z,6.55
2022-11-26T08:10:47.798Z,6.43
2022-11-26T08:13:15.582Z,6.51
2022-11-26T08:15:43.417Z,6.33
2022-11-26T08:18:11.877Z,6.60
2022-11-26T08:20:41.715Z,6.74
2022-11-26T08:23:10.913Z,6.79
2022-11-26T08:25:45.140Z,6.80
2022-11-26T08:28:26.526Z,6.81
2022-11-26T08:31:04.592Z,6.79
2022-11-26T08:33:32.893Z,6.76
2022-11-26T08:36:08.861Z,6.93
2022-11-26T08:38:38.441Z,7.47
2022-11-26T08:41:08.881Z,7.61
2022-11-26T08:44:04.601Z,7.73
2022-11-26T08:46:26.040Z,7.65
2022-11-26T08:48:56.275Z,7.91
2022-11-26T08:51:26.781Z,8.24
2022-11-26T08:53:55.971Z,8.23
2022-11-26T08:56:23.974Z,8.44
2022-11-26T08:58:51.878Z,8.50
2022-11-26T09:01:22.142Z,8.52
2022-11-26T09:03:51.745Z,8.15
2022-11-26T09:06:20.821Z,8.23
2022-11-26T09:09:07.154Z,8.15
2022-11-26T09:11:39.303Z,8.08
2022-11-26T09:14:06.872Z,8.32
2022-11-26T09:16:35.334Z,8.11
2022-11-26T09:19:04.567Z,7.91
2022-11-26T09:21:32.575Z,7.87
2022-11-26T09:24:00.654Z,7.63
2022-11-26T09:26:28.444Z,7.51
2022-11-26T09:28:57.749Z,7.56
2022-11-26T09:31:25.730Z,7.58
2022-11-26T09:33:56.069Z,7.46
2022-11-26T09:36:23.941Z,7.68
2022-11-26T09:38:55.090Z,7.64
2022-11-26T09:41:39.199Z,7.74
2022-11-26T09:44:20.846Z,7.59
2022-11-26T09:47:14.825Z,7.66
2022-11-26T09:49:54.416Z,7.79
2022-11-26T09:52:25.591Z,8.05
2022-11-26T09:55:01.873Z,8.01
2022-11-26T09:57:34.900Z,8.00
2022-11-26T10:00:06.786Z,7.85
2022-11-26T10:02:35.101Z,7.82
2022-11-26T10:05:02.952Z,7.84
2022-11-26T10:07:47.205Z,7.99
2022-11-26T10:10:20.236Z,8.10
2022-11-26T10:16:01.841Z,8.52
2022-11-26T10:18:39.535Z,8.58
2022-11-26T10:21:26.843Z,8.65
2022-11-26T10:24:00.543Z,8.92
2022-11-26T10:26:31.177Z,8.89
2022-11-26T10:29:15.817Z,9.08
2022-11-26T10:31:47.788Z,9.09
2022-11-26T10:34:19.216Z,9.17
2022-11-26T10:36:49.349Z,9.37
2022-11-26T10:39:20.556Z,9.12
2022-11-26T10:41:49.102Z,9.14
2022-11-26T10:44:30.850Z,9.34
2022-11-26T10:47:01.270Z,9.31
2022-11-26T10:49:30.677Z,8.98
2022-11-26T10:52:02.022Z,8.93
2022-11-26T10:54:34.331Z,9.05
2022-11-26T10:57:13.568Z,9.06
2022-11-26T10:59:48.280Z,8.98
2022-11-26T11:02:30.421Z,9.17
2022-11-26T11:05:00.252Z,9.36
2022-11-26T11:07:41.603Z,9.04
2022-11-26T11:10:17.422Z,8.95
2022-11-26T11:12:49.251Z,8.95
2022-11-26T11:15:23.138Z,8.59
2022-11-26T11:17:59.889Z,8.47
2022-11-26T11:20:34.299Z,8.35
2022-11-26T11:23:19.984Z,8.19
2022-11-26T11:25:57.710Z,8.05
2022-11-26T11:28:28.142Z,8.24
2022-11-26T11:31:03.646Z,8.12
2022-11-26T11:33:33.311Z,8.09
2022-11-26T11:36:17.974Z,8.04
2022-11-26T11:38:50.823Z,7.86
2022-11-26T11:41:26.194Z,7.86
2022-11-26T11:44:04.816Z,7.71
2022-11-26T11:47:21.619Z,7.75
2022-11-26T11:50:04.226Z,7.49
2022-11-26T11:52:39.543Z,7.50
2022-11-26T11:55:20.710Z,7.66
2022-11-26T11:58:01.929Z,7.69
2022-11-26T12:00:43.143Z,7.73
2022-11-26T12:03:50.527Z,7.60
2022-11-26T12:06:30.688Z,7.65
2022-11-26T12:09:08.723Z,7.73
2022-11-26T12:11:48.476Z,7.81
2022-11-26T12:14:21.838Z,7.87
2022-11-26T12:16:54.200Z,7.68
2022-11-26T12:19:30.242Z,7.66
2022-11-26T12:22:06.881Z,7.68
2022-11-26T12:24:41.594Z,7.75
2022-11-26T12:27:21.466Z,7.75
2022-11-26T12:29:54.670Z,7.75
2022-11-26T12:32:29.033Z,7.75
2022-11-26T12:35:01.128Z,7.67
2022-11-26T12:37:32.044Z,7.55
2022-11-26T12:40:05.163Z,7.37
2022-11-26T12:42:41.892Z,7.44
2022-11-26T12:45:18.800Z,7.45
2022-11-26T12:47:52.896Z,7.20
2022-11-26T12:50:28.720Z,7.25
2022-11-26T12:53:05.110Z,7.33
2022-11-26T12:55:39.907Z,7.35
2022-11-26T12:58:13.823Z,7.24
2022-11-26T13:00:41.891Z,7.15
2022-11-26T13:03:16.866Z,7.26
2022-11-26T13:05:55.606Z,7.12
2022-11-26T13:08:41.100Z,7.15
2022-11-26T13:11:26.026Z,7.22
2022-11-26T13:14:02.474Z,7.22
2022-11-26T13:16:37.860Z,7.19
2022-11-26T13:19:12.232Z,7.39
2022-11-26T13:21:51.053Z,7.38
2022-11-26T13:24:38.925Z,7.51
2022-11-26T13:27:24.238Z,7.58
2022-11-26T13:30:10.676Z,7.66
2022-11-26T13:33:09.964Z,7.79
2022-11-26T13:36:03.536Z,7.94
2022-11-26T13:38:38.382Z,8.11
2022-11-26T13:41:45.016Z,8.38
2022-11-26T13:44:46.873Z,8.55
2022-11-26T13:47:18.649Z,8.67
2022-11-26T13:49:52.144Z,8.90
2022-11-26T13:52:27.331Z,9.17
2022-11-26T13:55:02.128Z,9.23
2022-11-26T13:57:39.751Z,9.19
2022-11-26T14:00:09.795Z,9.21
2022-11-26T14:02:47.359Z,9.08
2022-11-26T14:05:17.026Z,9.00
2022-11-26T14:07:46.422Z,8.80
2022-11-26T14:10:44.160Z,8.75
2022-11-26T14:13:16.115Z,8.58
2022-11-26T14:15:58.351Z,8.40
2022-11-26T14:18:44.560Z,8.28
2022-11-26T14:21:13.321Z,8.23
2022-11-26T14:23:44.726Z,8.16
2022-11-26T14:26:19.530Z,8.08
2022-11-26T14:28:49.645Z,8.00
2022-11-26T14:31:23.015Z,7.92
2022-11-26T14:33:53.369Z,7.78
2022-11-26T14:36:22.470Z,7.62
2022-11-26T14:39:05.601Z,7.54
2022-11-26T14:41:51.282Z,7.33
2022-11-26T14:44:21.800Z,7.48
2022-11-26T14:46:51.947Z,7.37
2022-11-26T14:49:30.591Z,7.36
2022-11-26T14:52:00.172Z,7.38
2022-11-26T14:54:31.972Z,7.35
2022-11-26T14:57:05.741Z,7.32
2022-11-26T14:59:35.070Z,7.29
2022-11-26T15:02:02.911Z,7.22
2022-11-26T15:04:34.579Z,7.13
2022-11-26T15:07:02.453Z,6.94
2022-11-26T15:09:30.263Z,6.89
2022-11-26T15:12:05.802Z,6.88
2022-11-26T15:14:42.666Z,6.85
2022-11-26T15:17:14.666Z,6.86
2022-11-26T15:19:43.381Z,6.85
2022-11-26T15:22:22.020Z,6.79
2022-11-26T15:24:51.176Z,6.73
2022-11-26T15:27:29.856Z,6.68
2022-11-26T15:29:59.030Z,6.73
2022-11-26T15:32:28.844Z,6.66
2022-11-26T15:35:00.134Z,6.64
2022-11-26T15:37:28.287Z,6.56
2022-11-26T15:40:21.548Z,6.54
2022-11-26T15:42:50.782Z,6.62
2022-11-26T15:45:22.697Z,6.67
2022-11-26T15:47:53.150Z,6.58
2022-11-26T15:50:30.490Z,6.66
2022-11-26T15:53:02.082Z,6.61
2022-11-26T15:55:33.329Z,6.54
2022-11-26T15:58:03.998Z,6.41
2022-11-26T16:00:37.729Z,6.39
2022-11-26T16:03:26.831Z,6.26
2022-11-26T16:05:56.336Z,6.20
2022-11-26T16:08:26.631Z,6.21
2022-11-26T16:10:57.286Z,6.07
2022-11-26T16:13:28.981Z,6.03
2022-11-26T16:16:02.175Z,6.06
2022-11-26T16:18:37.866Z,5.98
2022-11-26T16:21:08.437Z,5.81
2022-11-26T16:23:36.788Z,5.78
2022-11-26T16:26:17.566Z,5.87
2022-11-26T16:28:46.350Z,5.82
2022-11-26T16:31:17.013Z,5.74
2022-11-26T16:33:46.292Z,5.69
2022-11-26T16:36:20.527Z,5.70
2022-11-26T16:38:49.029Z,5.77
2022-11-26T16:41:18.510Z,5.67
2022-11-26T16:43:46.344Z,5.57
2022-11-26T16:46:17.493Z,5.49
2022-11-26T16:48:46.427Z,5.37
2022-11-26T16:51:14.412Z,5.33
2022-11-26T16:53:42.603Z,5.37
2022-11-26T16:56:19.355Z,5.35
2022-11-26T16:58:47.484Z,5.32
2022-11-26T17:01:16.747Z,5.38
2022-11-26T17:03:44.947Z,5.33
2022-11-26T17:06:15.065Z,5.35
2022-11-26T17:08:49.132Z,5.43
2022-11-26T17:11:17.346Z,5.40
2022-11-26T17:13:45.134Z,5.37
2022-11-26T17:16:20.755Z,5.35
2022-11-26T17:18:49.170Z,5.42
2022-11-26T17:21:17.297Z,5.31
2022-11-26T17:23:45.078Z,5.17
2022-11-26T17:26:19.009Z,5.09
2022-11-26T17:28:47.273Z,5.12
2022-11-26T17:31:16.819Z,5.09
2022-11-26T17:33:44.621Z,5.10
2022-11-26T17:36:17.296Z,5.17
2022-11-26T17:38:46.075Z,5.17
2022-11-26T17:41:14.789Z,5.07
2022-11-26T17:43:43.023Z,4.83
2022-11-26T17:46:16.782Z,4.81
2022-11-26T17:48:46.001Z,4.79
2022-11-26T17:51:14.936Z,4.65
2022-11-26T17:53:43.806Z,4.55
2022-11-26T17:56:22.521Z,4.50
2022-11-26T17:58:50.944Z,4.53
2022-11-26T18:01:20.421Z,4.59
2022-11-26T18:03:48.546Z,4.53
2022-11-26T18:06:17.459Z,4.50
2022-11-26T18:08:45.760Z,4.42
2022-11-26T18:11:14.720Z,4.39
2022-11-26T18:13:45.281Z,4.38
2022-11-26T18:16:13.134Z,4.27
2022-11-26T18:18:42.311Z,4.26
2022-11-26T18:21:10.092Z,4.14
2022-11-26T18:23:37.883Z,4.10
2022-11-26T18:26:05.857Z,4.09
2022-11-26T18:28:33.643Z,4.00
2022-11-26T18:31:01.507Z,3.98
2022-11-26T18:33:29.665Z,3.95
2022-11-26T18:35:58.883Z,3.93
2022-11-26T18:38:29.042Z,3.81
2022-11-26T18:41:01.044Z,3.73
2022-11-26T18:43:30.409Z,3.63
2022-11-26T18:45:58.483Z,3.51
2022-11-26T18:48:26.238Z,3.47
2022-11-26T18:50:58.984Z,3.41
2022-11-26T18:53:27.806Z,3.30
2022-11-26T18:55:56.323Z,3.22
2022-11-26T18:58:25.482Z,3.35
2022-11-26T19:00:58.344Z,3.35
2022-11-26T19:03:27.487Z,3.38
2022-11-26T19:05:55.881Z,3.37
2022-11-26T19:08:25.031Z,3.55
2022-11-26T19:10:52.818Z,3.63
2022-11-26T19:13:20.853Z,3.70
2022-11-26T19:15:49.038Z,3.79
2022-11-26T19:18:17.408Z,3.73
2022-11-26T19:20:49.809Z,3.70
2022-11-26T19:23:17.800Z,3.70
2022-11-26T19:25:46.856Z,3.73
2022-11-26T19:28:14.622Z,3.83
2022-11-26T19:30:42.349Z,3.79
2022-11-26T19:33:10.179Z,3.69
2022-11-26T19:35:39.637Z,3.69
2022-11-26T19:38:07.501Z,3.60
2022-11-26T19:40:35.488Z,3.53
2022-11-26T19:43:05.135Z,3.40
2022-11-26T19:45:33.041Z,3.44
2022-11-26T19:48:01.086Z,3.44
2022-11-26T19:50:28.829Z,3.44
2022-11-26T19:52:56.581Z,3.42
2022-11-26T19:55:24.357Z,3.35
2022-11-26T19:57:52.511Z,3.18
2022-11-26T20:00:22.316Z,3.19
2022-11-26T20:02:50.119Z,3.15
2022-11-26T20:05:18.235Z,3.16
2022-11-26T20:07:46.247Z,3.22
2022-11-26T20:10:15.938Z,3.13
2022-11-26T20:12:43.746Z,3.10
2022-11-26T20:15:12.612Z,3.08
2022-11-26T20:17:41.771Z,3.08
2022-11-26T20:20:10.811Z,3.15
2022-11-26T20:22:39.152Z,3.15
2022-11-26T20:25:09.087Z,3.29
2022-11-26T20:27:36.967Z,3.25
2022-11-26T20:30:05.834Z,3.26
2022-11-26T20:32:33.550Z,3.15
2022-11-26T20:35:02.707Z,3.11
2022-11-26T20:37:30.568Z,3.10
2022-11-26T20:39:59.409Z,3.08
2022-11-26T20:42:27.737Z,3.03
2022-11-26T20:44:55.526Z,3.00
2022-11-26T20:47:24.047Z,3.16
2022-11-26T20:49:51.802Z,3.35
2022-11-26T20:52:23.590Z,3.40
2022-11-26T20:54:53.786Z,3.37
2022-11-26T20:57:23.397Z,3.24
2022-11-26T20:59:52.181Z,3.20
2022-11-26T21:02:20.100Z,3.20
2022-11-26T21:04:47.887Z,3.18
2022-11-26T21:07:15.678Z,3.16
2022-11-26T21:09:46.256Z,3.08
2022-11-26T21:12:14.098Z,3.02
2022-11-26T21:14:41.938Z,2.94
2022-11-26T21:17:09.719Z,2.90
2022-11-26T21:19:37.805Z,2.88
2022-11-26T21:22:05.845Z,2.86
2022-11-26T21:24:33.750Z,2.85
2022-11-26T21:27:02.881Z,2.90
2022-11-26T21:29:30.690Z,2.76
2022-11-26T21:31:58.454Z,2.64
2022-11-26T21:34:26.476Z,2.60
2022-11-26T21:36:54.299Z,2.56
2022-11-26T21:39:22.128Z,2.46
2022-11-26T21:41:49.911Z,2.34
2022-11-26T21:44:19.083Z,2.28
2022-11-26T21:46:46.896Z,2.29
2022-11-26T21:49:14.736Z,2.19
2022-11-26T21:51:42.551Z,2.62
2022-11-26T21:54:10.482Z,3.14
2022-11-26T21:56:38.514Z,3.10
2022-11-26T21:59:06.232Z,2.80
2022-11-26T22:01:37.069Z,2.79
2022-11-26T22:04:07.581Z,2.59
2022-11-26T22:06:36.079Z,2.62
2022-11-26T22:09:04.946Z,2.76
2022-11-26T22:11:35.733Z,2.80
2022-11-26T22:14:03.744Z,2.43
2022-11-26T22:16:32.015Z,2.37
2022-11-26T22:19:02.444Z,2.55
2022-11-26T22:21:32.463Z,2.77
2022-11-26T22:24:01.475Z,2.77
2022-11-26T22:26:30.528Z,2.76
2022-11-26T22:28:58.455Z,2.91
2022-11-26T22:31:27.776Z,2.92
2022-11-26T22:33:56.939Z,2.79
2022-11-26T22:36:26.933Z,2.52
2022-11-26T22:38:54.902Z,2.39
2022-11-26T22:41:23.441Z,2.43
2022-11-26T22:43:51.221Z,2.70
2022-11-26T22:46:20.826Z,3.12
2022-11-26T22:48:51.161Z,2.95
2022-11-26T22:51:19.330Z,3.24
2022-11-26T22:53:52.038Z,3.45
2022-11-26T22:56:20.692Z,3.31
2022-11-26T22:58:48.796Z,3.16
2022-11-26T23:01:20.067Z,3.10
2022-11-26T23:03:48.200Z,3.01
2022-11-26T23:06:17.848Z,2.96
2022-11-26T23:08:46.597Z,2.85
2022-11-26T23:11:18.459Z,2.98
2022-11-26T23:13:48.144Z,2.83
2022-11-26T23:16:16.261Z,3.19
2022-11-26T23:18:44.201Z,2.98
2022-11-26T23:21:13.974Z,3.13
2022-11-26T23:23:42.060Z,3.08
2022-11-26T23:26:12.976Z,3.24
2022-11-26T23:28:42.121Z,2.97
2022-11-26T23:31:15.572Z,3.02
2022-11-26T23:33:43.898Z,2.92
2022-11-26T23:36:12.155Z,2.85
2022-11-26T23:38:40.303Z,2.94
2022-11-26T23:41:08.688Z,3.07
2022-11-26T23:43:38.025Z,3.04
2022-11-26T23:46:10.946Z,3.12
2022-11-26T23:48:38.814Z,3.07
2022-11-26T23:51:08.330Z,3.14
2022-11-26T23:53:37.142Z,3.16
2022-11-26T23:56:06.696Z,3.09
2022-11-26T23:58:34.641Z,3.13
